Time;durP1;ratioP1;P1;durP2;ratioP2;P2;SDS_P1;SDS_P2;PMS_P1;PMS_P2;Temp;Humidity;BMP_temperature;BMP_pressure;BME280_temperature;BME280_humidity;BME280_pressure;Samples;Min_cycle;Max_cycle;Signal;HPM_P1;HPM_P2
2022/09/10 00:02:21;;;;;;;25.17;20.90;;;14.90;99.90;;;;;;5071766;28;20062;-68
2022/09/10 00:04:46;;;;;;;23.27;19.95;;;14.80;99.90;;;;;;5083460;28;20355;-68
2022/09/10 00:07:12;;;;;;;23.10;19.80;;;14.60;99.90;;;;;;5070576;28;20424;-67
2022/09/10 00:09:38;;;;;;;27.15;22.52;;;14.90;99.90;;;;;;5071498;28;20040;-68
2022/09/10 00:12:04;;;;;;;25.00;20.95;;;14.60;99.90;;;;;;5069791;28;20052;-71
2022/09/10 00:14:30;;;;;;;25.08;20.33;;;14.50;99.90;;;;;;5071404;28;20391;-70
2022/09/10 00:16:56;;;;;;;32.83;23.48;;;14.60;99.90;;;;;;5070181;28;20374;-69
2022/09/10 00:19:22;;;;;;;25.80;21.17;;;14.70;99.90;;;;;;5070106;28;20581;-71
2022/09/10 00:21:49;;;;;;;25.27;21.17;;;14.50;99.90;;;;;;5057858;28;20047;-71
2022/09/10 00:24:16;;;;;;;25.38;21.08;;;14.70;99.90;;;;;;5089888;28;20724;-67
2022/09/10 00:26:41;;;;;;;26.13;21.38;;;14.50;99.90;;;;;;5083379;28;20036;-69
2022/09/10 00:29:09;;;;;;;26.23;22.73;;;14.80;99.90;;;;;;5069444;28;20094;-67
2022/09/10 00:31:36;;;;;;;28.80;23.85;;;14.50;99.90;;;;;;5070935;28;20052;-68
2022/09/10 00:34:04;;;;;;;27.48;22.30;;;14.70;99.90;;;;;;5071078;28;20565;-69
2022/09/10 00:36:34;;;;;;;32.05;24.42;;;14.60;99.90;;;;;;5071623;28;20044;-71
2022/09/10 00:39:02;;;;;;;32.17;25.00;;;14.80;99.90;;;;;;5073501;28;20452;-70
2022/09/10 00:41:29;;;;;;;32.67;24.75;;;14.60;99.90;;;;;;5081336;28;20040;-67
2022/09/10 00:44:01;;;;;;;28.42;24.73;;;14.80;99.90;;;;;;5070718;28;20048;-67
2022/09/10 00:46:43;;;;;;;36.75;27.17;;;14.60;99.90;;;;;;5074224;28;20060;-67
2022/09/10 00:49:16;;;;;;;34.15;27.15;;;14.70;99.90;;;;;;5070255;28;20503;-68
2022/09/10 00:51:44;;;;;;;31.13;25.27;;;14.50;99.90;;;;;;5070413;28;20594;-67
2022/09/10 00:54:10;;;;;;;34.92;26.25;;;14.50;99.90;;;;;;5070147;28;20169;-68
2022/09/10 00:56:37;;;;;;;35.17;28.58;;;14.70;99.90;;;;;;5070741;28;20602;-68
2022/09/10 00:59:07;;;;;;;33.25;25.98;;;14.50;99.90;;;;;;5071434;28;20604;-68
2022/09/10 01:01:34;;;;;;;38.60;29.23;;;14.50;99.90;;;;;;5072755;28;20047;-67
2022/09/10 01:04:01;;;;;;;37.42;29.38;;;14.60;99.90;;;;;;5072472;28;20040;-70
2022/09/10 01:06:27;;;;;;;40.28;29.92;;;14.40;99.90;;;;;;5072800;28;20079;-68
2022/09/10 01:08:52;;;;;;;39.92;29.80;;;14.40;99.90;;;;;;5072942;28;20044;-68
2022/09/10 01:11:49;;;;;;;42.45;32.08;;;14.50;99.90;;;;;;5073342;28;20324;-69
2022/09/10 01:14:42;;;;;;;45.90;33.55;;;14.40;99.90;;;;;;5088259;28;20089;-69
2022/09/10 01:17:45;;;;;;;40.83;32.65;;;14.50;99.90;;;;;;5092235;28;20083;-67
2022/09/10 01:20:33;;;;;;;43.03;32.63;;;14.40;99.90;;;;;;5090554;28;20271;-67
2022/09/10 01:23:40;;;;;;;49.15;35.97;;;14.30;99.90;;;;;;5092313;28;20040;-68
2022/09/10 01:26:30;;;;;;;43.80;33.40;;;14.50;99.90;;;;;;5048155;28;20554;-67
2022/09/10 01:29:06;;;;;;;45.45;33.42;;;14.50;99.90;;;;;;5031656;28;20183;-67
2022/09/10 01:31:38;;;;;;;43.08;32.67;;;14.50;99.90;;;;;;5079230;28;20598;-68
2022/09/10 01:34:17;;;;;;;40.50;31.80;;;14.60;99.90;;;;;;5090843;28;20056;-68
2022/09/10 01:36:49;;;;;;;44.58;33.83;;;14.50;99.90;;;;;;5090571;28;20075;-67
2022/09/10 01:39:16;;;;;;;48.90;35.72;;;14.60;99.90;;;;;;5091187;28;20056;-67
2022/09/10 01:41:43;;;;;;;45.63;33.90;;;14.40;99.90;;;;;;5092564;28;20914;-69
2022/09/10 01:44:10;;;;;;;47.95;35.92;;;14.60;99.90;;;;;;5092230;28;20120;-69
2022/09/10 01:47:02;;;;;;;51.28;36.75;;;14.50;99.90;;;;;;5091627;28;20372;-68
2022/09/10 01:49:44;;;;;;;48.13;36.03;;;14.30;99.90;;;;;;5090607;28;20420;-67
2022/09/10 01:52:31;;;;;;;52.42;37.33;;;14.50;99.90;;;;;;5082603;28;20099;-67
2022/09/10 01:55:32;;;;;;;54.58;38.60;;;14.30;99.90;;;;;;5090673;28;20580;-68
2022/09/10 01:58:18;;;;;;;50.20;37.03;;;14.40;99.90;;;;;;5054883;28;20063;-67
2022/09/10 02:01:33;;;;;;;55.75;38.03;;;14.40;99.90;;;;;;5091755;28;20055;-67
2022/09/10 02:04:04;;;;;;;49.90;37.08;;;14.20;99.90;;;;;;5082980;28;20179;-68
2022/09/10 02:06:34;;;;;;;51.10;36.65;;;14.40;99.90;;;;;;5082466;28;20055;-68
2022/09/10 02:09:02;;;;;;;53.40;37.50;;;14.50;99.90;;;;;;5073027;28;20036;-67
2022/09/10 02:11:28;;;;;;;56.92;38.83;;;14.30;99.90;;;;;;5082898;28;20043;-67
2022/09/10 02:13:54;;;;;;;52.75;38.75;;;14.50;99.90;;;;;;5091962;28;20329;-69
2022/09/10 02:16:37;;;;;;;51.05;38.20;;;14.50;99.90;;;;;;5090861;28;20083;-67
2022/09/10 02:19:03;;;;;;;54.33;40.00;;;14.50;99.90;;;;;;5079239;28;20048;-67
2022/09/10 02:21:30;;;;;;;45.60;33.90;;;14.30;99.90;;;;;;5072527;28;20064;-67
2022/09/10 02:24:04;;;;;;;51.25;38.75;;;14.30;99.90;;;;;;5072574;28;20048;-67
2022/09/10 02:26:32;;;;;;;54.25;38.58;;;14.60;99.90;;;;;;5072242;28;20052;-68
2022/09/10 02:28:59;;;;;;;52.83;39.80;;;14.40;99.90;;;;;;5085165;28;20070;-66
2022/09/10 02:31:25;;;;;;;51.25;36.63;;;14.60;99.90;;;;;;5076401;28;20161;-67
2022/09/10 02:33:50;;;;;;;56.70;39.80;;;14.40;99.90;;;;;;5074669;28;20044;-68
2022/09/10 02:36:16;;;;;;;51.25;38.33;;;14.50;99.90;;;;;;5085188;28;20055;-67
2022/09/10 02:38:43;;;;;;;59.05;41.83;;;14.50;99.90;;;;;;5093481;28;20039;-67
2022/09/10 02:41:08;;;;;;;57.08;40.42;;;14.60;99.90;;;;;;5092938;28;20056;-71
2022/09/10 02:43:36;;;;;;;55.97;39.47;;;14.60;99.90;;;;;;5056165;28;20043;-68
2022/09/10 02:46:04;;;;;;;56.70;38.88;;;14.60;99.90;;;;;;5073386;28;20192;-68
2022/09/10 02:48:30;;;;;;;60.03;42.58;;;14.40;99.90;;;;;;5074005;28;20055;-69
2022/09/10 02:50:56;;;;;;;63.80;43.13;;;14.50;99.90;;;;;;5073690;28;20044;-70
2022/09/10 02:53:22;;;;;;;62.88;41.97;;;14.40;99.90;;;;;;5072239;28;20562;-68
2022/09/10 02:55:48;;;;;;;62.42;43.30;;;14.40;99.90;;;;;;5073269;28;20048;-68
2022/09/10 02:58:15;;;;;;;64.93;44.92;;;14.40;99.90;;;;;;5074284;28;20052;-67
2022/09/10 03:00:41;;;;;;;64.28;45.33;;;14.60;99.90;;;;;;5073201;28;20475;-70
2022/09/10 03:03:07;;;;;;;61.45;43.17;;;14.60;99.90;;;;;;5075675;28;20044;-68
2022/09/10 03:05:34;;;;;;;63.17;43.67;;;14.60;99.90;;;;;;5075474;28;20052;-68
2022/09/10 03:08:00;;;;;;;62.92;43.65;;;14.60;99.90;;;;;;5075185;28;20499;-69
2022/09/10 03:10:25;;;;;;;55.92;39.75;;;14.60;99.90;;;;;;5075490;28;20170;-68
2022/09/10 03:12:52;;;;;;;66.43;43.55;;;14.50;99.90;;;;;;5074412;28;20044;-67
2022/09/10 03:15:19;;;;;;;56.33;40.47;;;14.50;99.90;;;;;;5073538;28;20159;-67
2022/09/10 03:17:46;;;;;;;70.53;47.33;;;14.60;99.90;;;;;;5071876;28;20398;-70
2022/09/10 03:20:12;;;;;;;64.57;46.28;;;14.60;99.90;;;;;;5072720;28;20359;-68
2022/09/10 03:22:38;;;;;;;61.22;43.72;;;14.70;99.90;;;;;;5073246;28;20121;-68
2022/09/10 03:25:05;;;;;;;61.58;45.10;;;14.50;99.90;;;;;;5073405;28;20932;-68
2022/09/10 03:27:31;;;;;;;64.85;45.30;;;14.70;99.90;;;;;;5073193;28;20555;-69
2022/09/10 03:29:56;;;;;;;61.95;45.40;;;14.50;99.90;;;;;;5073296;28;20056;-68
2022/09/10 03:32:22;;;;;;;65.18;46.75;;;14.50;99.90;;;;;;5072885;28;20036;-71
2022/09/10 03:34:48;;;;;;;57.47;41.78;;;14.80;99.90;;;;;;5073692;28;20047;-68
2022/09/10 03:37:14;;;;;;;63.33;45.95;;;14.70;99.90;;;;;;5074460;28;20095;-68
2022/09/10 03:39:40;;;;;;;64.43;46.83;;;14.60;99.90;;;;;;5074571;28;20048;-68
2022/09/10 03:42:06;;;;;;;59.00;45.17;;;14.70;99.90;;;;;;5079972;28;20535;-68
2022/09/10 03:44:32;;;;;;;64.22;45.97;;;14.90;99.90;;;;;;5073137;28;20054;-68
2022/09/10 03:46:59;;;;;;;64.75;47.55;;;14.70;99.90;;;;;;5072727;28;20051;-68
2022/09/10 03:49:25;;;;;;;65.25;47.28;;;14.90;99.90;;;;;;5072411;28;20142;-68
2022/09/10 03:51:51;;;;;;;61.55;46.55;;;14.70;99.90;;;;;;5072154;28;20086;-68
2022/09/10 03:54:18;;;;;;;62.20;46.78;;;14.70;99.90;;;;;;5072670;28;20952;-68
2022/09/10 03:56:43;;;;;;;63.25;46.45;;;14.70;99.90;;;;;;5091517;28;20060;-67
2022/09/10 03:59:12;;;;;;;70.78;49.10;;;14.70;99.90;;;;;;5091355;28;20047;-68
2022/09/10 04:01:38;;;;;;;64.30;47.22;;;14.70;99.90;;;;;;5090887;28;20051;-67
2022/09/10 04:04:04;;;;;;;62.60;45.05;;;15.00;99.90;;;;;;5091262;28;20120;-67
2022/09/10 04:06:31;;;;;;;65.78;46.95;;;14.80;99.90;;;;;;5090899;27;20526;-68
2022/09/10 04:08:57;;;;;;;66.65;48.35;;;14.70;99.90;;;;;;5091045;28;20109;-68
2022/09/10 04:11:26;;;;;;;68.22;49.28;;;14.70;99.90;;;;;;5091289;28;20850;-66
2022/09/10 04:13:52;;;;;;;66.55;47.03;;;14.90;99.90;;;;;;5090752;28;20048;-68
2022/09/10 04:16:18;;;;;;;70.10;49.45;;;14.70;99.90;;;;;;5090745;27;20051;-68
2022/09/10 04:18:44;;;;;;;63.90;47.72;;;15.00;99.90;;;;;;5091350;28;20692;-70
2022/09/10 04:21:09;;;;;;;73.07;49.00;;;14.80;99.90;;;;;;5091923;27;20044;-66
2022/09/10 04:23:35;;;;;;;70.03;49.20;;;14.90;99.90;;;;;;5093249;28;20039;-67
2022/09/10 04:26:09;;;;;;;69.50;49.05;;;14.70;99.90;;;;;;5093440;28;20039;-67
2022/09/10 04:28:35;;;;;;;72.10;50.72;;;14.70;99.90;;;;;;5093235;28;20043;-67
2022/09/10 04:31:00;;;;;;;69.18;48.13;;;15.00;99.90;;;;;;5091921;28;20055;-68
2022/09/10 04:33:26;;;;;;;78.38;51.45;;;15.00;99.90;;;;;;5092660;28;20139;-70
2022/09/10 04:35:51;;;;;;;79.95;51.67;;;14.90;99.90;;;;;;5090929;28;20168;-67
2022/09/10 04:38:17;;;;;;;78.95;51.85;;;14.90;99.90;;;;;;5090828;28;20087;-68
2022/09/10 04:40:43;;;;;;;77.82;52.22;;;15.00;99.90;;;;;;5072615;28;20396;-68
2022/09/10 04:43:09;;;;;;;76.35;52.70;;;14.70;99.90;;;;;;5073722;28;20048;-67
2022/09/10 04:45:34;;;;;;;82.80;54.40;;;14.80;99.90;;;;;;5071056;28;20403;-68
2022/09/10 04:48:00;;;;;;;82.72;51.55;;;15.00;99.90;;;;;;5069509;28;20048;-67
2022/09/10 04:50:26;;;;;;;89.00;53.78;;;14.80;99.90;;;;;;5076328;28;20039;-68
2022/09/10 04:52:51;;;;;;;79.78;50.50;;;14.70;99.90;;;;;;5083350;28;20055;-67
2022/09/10 04:55:17;;;;;;;85.72;54.15;;;14.80;99.90;;;;;;5071572;28;20047;-66
2022/09/10 04:57:43;;;;;;;88.00;53.85;;;14.80;99.90;;;;;;5071622;28;20062;-68
2022/09/10 05:00:09;;;;;;;86.53;53.60;;;14.80;99.90;;;;;;5072094;28;20224;-68
2022/09/10 05:02:36;;;;;;;79.32;50.50;;;15.00;99.90;;;;;;5074962;28;20502;-70
2022/09/10 05:05:02;;;;;;;71.63;48.17;;;15.00;99.90;;;;;;5083321;28;20127;-68
2022/09/10 05:07:29;;;;;;;75.28;50.78;;;15.00;99.90;;;;;;5074278;28;20465;-67
2022/09/10 05:09:54;;;;;;;93.28;55.00;;;15.00;99.90;;;;;;5072500;28;20530;-67
2022/09/10 05:12:21;;;;;;;75.00;49.58;;;15.00;99.90;;;;;;5072142;28;20122;-68
2022/09/10 05:14:47;;;;;;;77.10;50.95;;;14.90;99.90;;;;;;5072411;28;20055;-67
2022/09/10 05:17:14;;;;;;;75.45;49.33;;;15.10;99.90;;;;;;5075581;28;20180;-66
2022/09/10 05:19:39;;;;;;;82.97;48.63;;;14.90;99.90;;;;;;5070357;28;20062;-67
2022/09/10 05:22:05;;;;;;;74.47;47.90;;;14.80;99.90;;;;;;5072183;28;20045;-67
2022/09/10 05:24:33;;;;;;;70.63;46.03;;;15.10;99.90;;;;;;5072195;28;20346;-67
2022/09/10 05:26:59;;;;;;;78.13;49.70;;;15.00;99.90;;;;;;5090211;28;20051;-67
2022/09/10 05:29:25;;;;;;;81.85;50.60;;;14.80;99.90;;;;;;5090065;28;20051;-70
2022/09/10 05:31:50;;;;;;;77.43;49.75;;;15.10;99.90;;;;;;5079763;28;20063;-67
2022/09/10 05:34:16;;;;;;;71.57;48.45;;;15.00;99.90;;;;;;5070679;28;20096;-67
2022/09/10 05:36:42;;;;;;;84.03;52.78;;;14.90;99.90;;;;;;5072147;28;20047;-68
2022/09/10 05:39:07;;;;;;;76.72;49.95;;;15.10;99.90;;;;;;5072738;28;20044;-68
2022/09/10 05:41:33;;;;;;;76.00;48.35;;;15.10;99.90;;;;;;5073383;28;20047;-67
2022/09/10 05:43:59;;;;;;;75.65;49.17;;;15.00;99.90;;;;;;5088677;28;21009;-70
2022/09/10 05:46:24;;;;;;;74.45;50.38;;;15.30;99.90;;;;;;5089763;28;20043;-66
2022/09/10 05:48:52;;;;;;;69.20;47.75;;;15.00;99.90;;;;;;5083086;28;20267;-69
2022/09/10 05:51:18;;;;;;;73.72;49.20;;;15.10;99.90;;;;;;5091553;28;20117;-69
2022/09/10 05:53:44;;;;;;;71.47;46.22;;;15.20;99.90;;;;;;5091433;28;20043;-65
2022/09/10 05:56:10;;;;;;;72.70;48.13;;;15.10;99.90;;;;;;5090483;28;20055;-67
2022/09/10 05:58:36;;;;;;;73.07;49.42;;;15.40;99.90;;;;;;5089407;28;20089;-70
2022/09/10 06:01:01;;;;;;;74.13;49.60;;;15.30;99.90;;;;;;5085514;28;20142;-70
2022/09/10 06:03:27;;;;;;;64.75;44.50;;;15.20;99.90;;;;;;5088761;28;20391;-67
2022/09/10 06:05:54;;;;;;;70.65;48.17;;;15.40;99.90;;;;;;5088217;28;20109;-67
2022/09/10 06:08:21;;;;;;;73.28;49.90;;;15.30;99.90;;;;;;5073913;28;20060;-68
2022/09/10 06:11:03;;;;;;;66.50;45.70;;;15.30;99.90;;;;;;5069943;28;20096;-70
2022/09/10 06:13:30;;;;;;;79.23;51.87;;;15.50;99.90;;;;;;5069421;28;20412;-69
2022/09/10 06:15:56;;;;;;;77.60;51.72;;;15.50;99.90;;;;;;5069578;28;20575;-68
2022/09/10 06:18:22;;;;;;;72.35;47.53;;;15.50;99.90;;;;;;5069102;28;20040;-67
2022/09/10 06:20:48;;;;;;;72.10;45.40;;;15.40;99.90;;;;;;5069997;28;20059;-69
2022/09/10 06:23:15;;;;;;;67.38;45.92;;;15.50;99.90;;;;;;5068135;28;20419;-67
2022/09/10 06:25:41;;;;;;;68.90;47.40;;;15.60;99.90;;;;;;5069057;28;20130;-68
2022/09/10 06:28:08;;;;;;;67.57;46.17;;;15.70;99.90;;;;;;5068236;28;20295;-69
2022/09/10 06:30:34;;;;;;;68.95;46.42;;;15.80;99.90;;;;;;5068197;28;20098;-68
2022/09/10 06:33:00;;;;;;;63.72;46.25;;;15.50;99.90;;;;;;5068379;28;20048;-68
2022/09/10 06:35:26;;;;;;;69.95;47.00;;;15.80;99.90;;;;;;5070382;28;20051;-70
2022/09/10 06:37:53;;;;;;;65.93;44.30;;;15.60;99.90;;;;;;5070122;28;20052;-68
2022/09/10 06:40:19;;;;;;;63.17;44.17;;;15.80;99.90;;;;;;5069231;28;20048;-67
2022/09/10 06:42:44;;;;;;;54.47;41.97;;;15.60;99.90;;;;;;5069287;28;20337;-67
2022/09/10 06:45:10;;;;;;;56.08;40.65;;;15.60;99.90;;;;;;5068987;28;20040;-67
2022/09/10 06:47:36;;;;;;;53.20;38.33;;;15.70;99.90;;;;;;5069297;28;20040;-67
2022/09/10 06:50:03;;;;;;;51.97;39.80;;;15.70;99.90;;;;;;5068927;28;20661;-71
2022/09/10 06:52:29;;;;;;;57.13;39.67;;;15.70;99.90;;;;;;5089209;28;20639;-67
2022/09/10 06:54:55;;;;;;;47.50;37.22;;;15.60;99.90;;;;;;5088837;28;20432;-68
2022/09/10 06:57:25;;;;;;;52.03;38.63;;;15.80;99.90;;;;;;5088512;28;20043;-67
2022/09/10 06:59:51;;;;;;;52.45;38.92;;;15.90;99.90;;;;;;5086787;28;20067;-68
2022/09/10 07:02:16;;;;;;;50.60;39.20;;;15.80;99.90;;;;;;5076331;28;20068;-69
2022/09/10 07:04:42;;;;;;;46.92;36.65;;;15.80;99.90;;;;;;5068085;28;20654;-67
2022/09/10 07:07:08;;;;;;;56.92;40.83;;;16.00;99.90;;;;;;5072713;28;20043;-70
2022/09/10 07:09:34;;;;;;;48.88;37.33;;;15.90;99.90;;;;;;5082295;28;20142;-69
2022/09/10 07:12:00;;;;;;;53.45;38.38;;;15.80;99.90;;;;;;5070126;28;20044;-67
2022/09/10 07:14:26;;;;;;;47.05;36.22;;;16.00;99.90;;;;;;5071886;28;20048;-67
2022/09/10 07:16:53;;;;;;;47.03;34.53;;;16.10;99.90;;;;;;5073792;28;20607;-67
2022/09/10 07:19:19;;;;;;;49.45;37.92;;;15.80;99.90;;;;;;5074107;28;20052;-67
2022/09/10 07:21:45;;;;;;;46.05;36.42;;;16.00;99.90;;;;;;5073568;28;20078;-67
2022/09/10 07:24:11;;;;;;;50.03;36.75;;;16.00;99.90;;;;;;5073931;28;20586;-69
2022/09/10 07:26:37;;;;;;;46.03;35.67;;;16.00;99.90;;;;;;5072883;28;20294;-67
2022/09/10 07:29:03;;;;;;;47.38;36.08;;;16.20;99.90;;;;;;5073204;28;20048;-70
2022/09/10 07:31:32;;;;;;;40.72;34.20;;;16.10;99.90;;;;;;5093881;28;20069;-71
2022/09/10 07:34:00;;;;;;;42.60;32.08;;;16.20;99.90;;;;;;5094673;28;20052;-67
2022/09/10 07:36:27;;;;;;;40.67;32.58;;;16.30;99.90;;;;;;5093914;28;20352;-70
2022/09/10 07:38:54;;;;;;;43.58;32.28;;;16.30;99.90;;;;;;5092228;28;20086;-67
2022/09/10 07:41:20;;;;;;;33.60;29.67;;;16.30;99.90;;;;;;5091587;27;20043;-68
2022/09/10 07:43:46;;;;;;;37.78;31.25;;;16.30;99.90;;;;;;5091390;28;20399;-67
2022/09/10 07:46:19;;;;;;;37.80;30.27;;;16.40;99.90;;;;;;5078339;28;20052;-67
2022/09/10 07:48:47;;;;;;;38.90;29.08;;;16.30;99.90;;;;;;5072029;28;20368;-67
2022/09/10 07:51:17;;;;;;;35.92;29.67;;;16.50;99.90;;;;;;5072004;28;20480;-69
2022/09/10 07:53:43;;;;;;;36.97;30.27;;;16.50;99.90;;;;;;5070133;28;20055;-68
2022/09/10 07:56:10;;;;;;;34.17;29.25;;;16.50;99.90;;;;;;5087374;28;20047;-67
2022/09/10 07:58:37;;;;;;;35.90;29.42;;;16.40;99.90;;;;;;5082600;28;20063;-70
2022/09/10 08:01:10;;;;;;;35.80;28.92;;;16.40;99.90;;;;;;5072083;28;20497;-68
2022/09/10 08:03:37;;;;;;;33.78;29.13;;;16.50;99.90;;;;;;5076106;28;20477;-69
2022/09/10 08:06:03;;;;;;;35.15;29.13;;;16.80;99.90;;;;;;5075224;28;20056;-68
2022/09/10 08:08:31;;;;;;;34.17;27.65;;;16.60;99.90;;;;;;5093546;28;20543;-68
2022/09/10 08:11:16;;;;;;;30.65;25.63;;;16.60;99.90;;;;;;5094043;27;20051;-68
2022/09/10 08:13:44;;;;;;;29.75;25.92;;;16.80;99.90;;;;;;5093629;28;20051;-68
2022/09/10 08:16:14;;;;;;;28.90;25.77;;;16.90;99.90;;;;;;5093834;28;20051;-67
2022/09/10 08:18:42;;;;;;;32.95;25.23;;;16.80;99.90;;;;;;5093390;28;20246;-67
2022/09/10 08:21:08;;;;;;;30.23;24.80;;;16.90;99.90;;;;;;5093769;28;20075;-69
2022/09/10 08:23:34;;;;;;;26.10;22.77;;;16.90;99.90;;;;;;5093455;28;20138;-70
2022/09/10 08:26:00;;;;;;;27.38;22.60;;;17.10;99.90;;;;;;5093091;28;20050;-69
2022/09/10 08:28:26;;;;;;;27.90;22.10;;;16.90;99.90;;;;;;5093504;28;20039;-67
2022/09/10 08:31:06;;;;;;;26.23;23.45;;;17.00;99.90;;;;;;5093208;28;20078;-68
2022/09/10 08:33:37;;;;;;;27.23;22.75;;;17.10;99.90;;;;;;5093914;28;20035;-68
2022/09/10 08:36:04;;;;;;;26.83;22.75;;;17.00;99.90;;;;;;5093625;28;20072;-67
2022/09/10 08:38:38;;;;;;;27.10;22.27;;;17.20;99.90;;;;;;5093280;28;20046;-70
2022/09/10 08:41:28;;;;;;;25.48;22.33;;;17.20;99.90;;;;;;5091836;28;20043;-68
2022/09/10 08:44:02;;;;;;;28.08;23.80;;;17.20;99.90;;;;;;5092845;28;20057;-70
2022/09/10 08:46:39;;;;;;;32.20;24.60;;;17.30;99.90;;;;;;5088692;28;20052;-68
2022/09/10 08:49:15;;;;;;;28.65;23.55;;;17.30;99.90;;;;;;5073940;28;20648;-69
2022/09/10 08:51:51;;;;;;;31.17;24.23;;;17.20;99.90;;;;;;5089921;28;20427;-68
2022/09/10 08:54:24;;;;;;;29.30;22.50;;;17.20;99.90;;;;;;5089814;28;20047;-68
2022/09/10 08:56:52;;;;;;;28.47;22.77;;;17.20;99.90;;;;;;5089532;28;20051;-68
2022/09/10 08:59:25;;;;;;;29.00;23.52;;;17.10;99.90;;;;;;5089017;28;20084;-71
2022/09/10 09:01:59;;;;;;;30.50;23.38;;;17.20;99.90;;;;;;5089964;28;20949;-67
2022/09/10 09:04:40;;;;;;;28.02;21.08;;;17.00;99.90;;;;;;5090010;28;20048;-68
2022/09/10 09:07:18;;;;;;;23.17;20.77;;;17.00;99.90;;;;;;5089984;28;20462;-68
2022/09/10 09:09:50;;;;;;;23.70;20.48;;;17.20;99.90;;;;;;5090008;27;20043;-67
2022/09/10 09:12:44;;;;;;;26.92;21.83;;;17.10;99.90;;;;;;5077566;28;20062;-66
2022/09/10 09:15:16;;;;;;;25.33;21.50;;;17.10;99.90;;;;;;5090771;28;20050;-68
2022/09/10 09:17:53;;;;;;;26.10;20.85;;;17.20;99.90;;;;;;5089485;28;20486;-69
2022/09/10 09:20:40;;;;;;;23.60;19.23;;;17.00;99.90;;;;;;5071493;28;20051;-69
2022/09/10 09:23:13;;;;;;;27.80;20.90;;;17.00;99.90;;;;;;5070405;28;20120;-67
2022/09/10 09:26:13;;;;;;;22.48;19.45;;;17.00;99.90;;;;;;5069906;28;20056;-67
2022/09/10 09:28:51;;;;;;;22.80;19.42;;;17.00;99.90;;;;;;5068573;28;20465;-66
2022/09/10 09:31:24;;;;;;;24.20;19.45;;;17.00;99.90;;;;;;5069717;28;20522;-68
2022/09/10 09:33:54;;;;;;;25.65;20.42;;;17.10;99.90;;;;;;5070077;28;20131;-67
2022/09/10 09:36:30;;;;;;;26.00;19.70;;;17.20;99.90;;;;;;5069664;28;20574;-69
2022/09/10 09:38:55;;;;;;;25.45;19.90;;;17.30;99.90;;;;;;5068597;28;20044;-67
2022/09/10 09:41:31;;;;;;;23.05;19.05;;;17.20;99.90;;;;;;5070215;28;20090;-69
2022/09/10 09:44:03;;;;;;;25.80;19.98;;;17.30;99.90;;;;;;5070433;28;20460;-70
2022/09/10 09:46:28;;;;;;;26.77;21.75;;;17.20;99.90;;;;;;5070397;28;20243;-68
2022/09/10 09:49:00;;;;;;;24.65;20.33;;;17.20;99.90;;;;;;5070607;28;20043;-68
2022/09/10 09:51:31;;;;;;;23.27;19.63;;;17.30;99.90;;;;;;5070546;28;20127;-66
2022/09/10 09:54:02;;;;;;;21.92;19.38;;;17.40;99.90;;;;;;5070030;28;20448;-66
2022/09/10 09:56:36;;;;;;;29.27;21.30;;;17.50;99.90;;;;;;5070641;28;20047;-67
2022/09/10 09:59:10;;;;;;;23.40;19.90;;;17.40;99.90;;;;;;5070722;28;20188;-67
2022/09/10 10:01:39;;;;;;;24.00;18.35;;;17.50;99.90;;;;;;5071811;28;20051;-68
2022/09/10 10:04:19;;;;;;;21.38;17.75;;;17.70;99.90;;;;;;5072227;28;20500;-68
2022/09/10 10:06:52;;;;;;;19.65;16.95;;;17.60;99.90;;;;;;5091660;28;20523;-67
2022/09/10 10:09:25;;;;;;;21.65;17.70;;;17.70;99.90;;;;;;5092026;28;20048;-67
2022/09/10 10:11:54;;;;;;;24.48;18.58;;;18.00;99.90;;;;;;5090500;28;20091;-67
2022/09/10 10:14:22;;;;;;;22.52;19.23;;;18.00;99.90;;;;;;5091702;28;20039;-67
2022/09/10 10:16:51;;;;;;;25.60;20.40;;;18.10;99.90;;;;;;5054123;28;20048;-69
2022/09/10 10:19:37;;;;;;;22.30;18.92;;;18.10;99.90;;;;;;5072471;28;20130;-68
2022/09/10 10:22:17;;;;;;;22.73;18.42;;;18.20;99.90;;;;;;5071707;28;20053;-67
2022/09/10 10:24:45;;;;;;;21.55;18.38;;;18.20;99.90;;;;;;5079113;28;20054;-70
2022/09/10 10:27:36;;;;;;;18.52;16.52;;;18.20;99.90;;;;;;5091726;28;20142;-67
2022/09/10 10:30:22;;;;;;;18.70;16.58;;;18.30;99.90;;;;;;5066115;28;20409;-68
2022/09/10 10:32:57;;;;;;;19.55;16.35;;;18.30;99.90;;;;;;5072608;28;20071;-68
2022/09/10 10:35:32;;;;;;;17.90;15.90;;;18.40;99.90;;;;;;5070733;28;20609;-68
2022/09/10 10:37:59;;;;;;;17.45;15.63;;;18.60;99.90;;;;;;5070516;28;20375;-67
2022/09/10 10:40:30;;;;;;;17.67;15.07;;;18.50;99.90;;;;;;5073404;28;20055;-71
2022/09/10 10:43:09;;;;;;;20.10;15.82;;;18.70;99.90;;;;;;5091681;28;20075;-67
2022/09/10 10:46:00;;;;;;;18.35;16.48;;;18.70;99.90;;;;;;5083604;28;20056;-67
2022/09/10 10:48:46;;;;;;;19.25;17.05;;;18.80;99.90;;;;;;5070587;28;20051;-68
2022/09/10 10:51:47;;;;;;;20.08;16.60;;;19.10;99.90;;;;;;5073995;28;20058;-68
2022/09/10 10:54:36;;;;;;;18.33;16.38;;;19.20;99.90;;;;;;5091468;28;20188;-68
2022/09/10 10:57:10;;;;;;;20.38;16.90;;;19.40;99.90;;;;;;5093298;28;20744;-68
2022/09/10 11:00:16;;;;;;;19.55;16.17;;;19.50;99.90;;;;;;5076910;28;20503;-69
2022/09/10 11:02:54;;;;;;;18.77;16.50;;;19.60;99.90;;;;;;5051336;28;20816;-70
2022/09/10 11:05:32;;;;;;;16.75;15.13;;;19.60;99.90;;;;;;5035030;28;20590;-67
2022/09/10 11:08:14;;;;;;;16.23;14.60;;;19.80;99.90;;;;;;5066744;28;20608;-69
2022/09/10 11:11:00;;;;;;;15.57;13.97;;;19.90;99.90;;;;;;5093765;28;20052;-67
2022/09/10 11:13:46;;;;;;;16.55;14.57;;;20.10;99.90;;;;;;5095506;28;20426;-67
2022/09/10 11:16:45;;;;;;;17.63;15.82;;;20.30;99.90;;;;;;5072569;27;21298;-68
2022/09/10 11:19:35;;;;;;;15.48;13.88;;;20.50;99.90;;;;;;5082584;28;20094;-67
2022/09/10 11:22:17;;;;;;;14.48;12.68;;;21.30;99.90;;;;;;5086359;28;20854;-68
2022/09/10 11:24:57;;;;;;;12.85;11.60;;;22.30;99.90;;;;;;5094709;28;20340;-68
2022/09/10 11:27:29;;;;;;;14.65;12.40;;;22.80;99.90;;;;;;5094566;27;20362;-67
2022/09/10 11:30:05;;;;;;;12.25;11.07;;;23.00;99.90;;;;;;5094617;28;20573;-68
2022/09/10 11:32:38;;;;;;;14.00;12.60;;;22.70;99.90;;;;;;5094067;28;20419;-67
2022/09/10 11:35:20;;;;;;;14.18;12.77;;;22.50;99.90;;;;;;5094579;28;20043;-68
2022/09/10 11:38:11;;;;;;;17.98;12.02;;;22.30;99.90;;;;;;5094849;28;20044;-69
2022/09/10 11:40:43;;;;;;;14.20;12.43;;;22.70;99.90;;;;;;5095170;28;20059;-68
2022/09/10 11:43:43;;;;;;;17.63;13.00;;;23.50;99.90;;;;;;5075191;28;20648;-70
2022/09/10 11:46:40;;;;;;;13.80;12.50;;;24.10;99.90;;;;;;5075559;28;20048;-71
2022/09/10 11:49:22;;;;;;;11.65;10.45;;;24.50;99.90;;;;;;5074503;28;20056;-69
2022/09/10 11:51:48;;;;;;;11.33;10.23;;;24.50;99.90;;;;;;5074717;28;20143;-69
2022/09/10 11:54:33;;;;;;;11.57;10.48;;;24.70;99.90;;;;;;5075031;28;20048;-68
2022/09/10 11:57:17;;;;;;;11.25;10.15;;;24.90;99.90;;;;;;5075048;28;20235;-67
2022/09/10 12:00:17;;;;;;;12.38;11.18;;;24.80;99.90;;;;;;5074511;28;20140;-67
2022/09/10 12:03:02;;;;;;;12.10;11.00;;;25.20;99.90;;;;;;5074894;28;20230;-71
2022/09/10 12:06:12;;;;;;;10.57;9.57;;;25.10;99.90;;;;;;5094111;28;20051;-68
2022/09/10 12:09:19;;;;;;;11.07;10.07;;;25.20;99.90;;;;;;5094196;27;20043;-70
2022/09/10 12:12:03;;;;;;;11.15;9.90;;;25.20;99.90;;;;;;5093967;28;20093;-72
2022/09/10 12:14:29;;;;;;;10.18;9.13;;;25.40;99.90;;;;;;5081719;28;20674;-69
2022/09/10 12:17:07;;;;;;;12.48;10.55;;;25.50;99.90;;;;;;5079676;28;20039;-69
2022/09/10 12:19:46;;;;;;;11.82;10.60;;;25.20;99.90;;;;;;5092907;28;20558;-71
2022/09/10 12:22:24;;;;;;;11.85;10.65;;;25.40;99.90;;;;;;5071662;28;20056;-68
2022/09/10 12:24:55;;;;;;;11.13;10.02;;;25.50;99.90;;;;;;5070725;28;20662;-68
2022/09/10 12:27:42;;;;;;;11.10;9.95;;;25.70;99.90;;;;;;5085962;28;20086;-69
2022/09/10 12:30:26;;;;;;;11.82;10.63;;;25.80;99.90;;;;;;5093741;28;20333;-68
2022/09/10 12:32:59;;;;;;;11.68;10.50;;;25.80;99.90;;;;;;5090637;28;20527;-67
2022/09/10 12:35:31;;;;;;;12.07;10.93;;;25.90;99.90;;;;;;5073550;28;20462;-71
2022/09/10 12:38:35;;;;;;;13.30;11.30;;;26.00;99.90;;;;;;5073367;28;20475;-68
2022/09/10 12:41:02;;;;;;;12.13;10.65;;;26.20;99.90;;;;;;5072765;28;20063;-68
2022/09/10 12:43:40;;;;;;;10.70;9.65;;;26.00;99.90;;;;;;5073451;28;20040;-68
2022/09/10 12:46:06;;;;;;;11.60;10.48;;;26.00;99.90;;;;;;5071373;28;20142;-69
2022/09/10 12:48:38;;;;;;;11.50;10.40;;;26.20;99.90;;;;;;5070142;28;20043;-70
2022/09/10 12:51:24;;;;;;;;;;;26.50;99.90;;;;;;5071367;28;20109;-70
2022/09/10 12:54:11;;;;;;;11.05;9.95;;;26.10;99.90;;;;;;5058628;28;19924;-69